パナマ/トキュメン の空港の天気 - METARとTAF

トキュメン国際空港 ( MPTO / PTY ) - パナマ パナマ市
飛行場実況気象(Metar)
観測時間05/19 22:00 EST (05/20 03:00 UTC)
風向・風速北 2m/s
視程10km以上
天気現象
全天の4割程度の雲 雲底高度 550m
全天の4割程度の雲 雲底高度 2440m
気温26℃
湿度94%
気圧1012hPa
METARMPTO 200300Z 35004KT 9999 SCT018 SCT080 26/25 Q1012 NOSIG
過去の天気等 Google飛行場航空写真 Wunderground天気予報

過去48時間のMETAR

飛行場予報(TAF)
発表時間: 5/19 18:00 EST (5/19 23:00 UTC)
予報対象時間: 19日19時 EST ~ 21日1時 EST
風向・風速南 4m/s
視程10km以上
全天の4割程度の積乱雲 雲底高度 490m
全天の8割程度の雲 雲底高度 2740m
20日13時 EST から 確率 40% で
風向・風速南 5m/s
視程6000m
天気現象雷雨
全天の4割程度の積乱雲 雲底高度 460m
全天の8割程度の雲 雲底高度 2440m
20日18時 EST ~ 20日22時 EST に一時的に
風向・風速東北東 3m/s
TAF MPTO 192300Z 2000/2106 18008KT 9999 SCT016CB BKN090
PROB40 2018/2022 17010 6000 TSRA SCT015CB BKN080
TEMPO 2023/2103 06006KT